createdAt,value
2023-01-11T00:00:52.375Z,0
2023-01-11T00:01:52.673Z,0
2023-01-11T00:02:52.589Z,0
2023-01-11T00:03:52.317Z,0
2023-01-11T00:04:52.993Z,0
2023-01-11T00:05:52.389Z,0
2023-01-11T00:06:53.053Z,0
2023-01-11T00:07:52.545Z,0
2023-01-11T00:08:52.741Z,0
2023-01-11T00:09:52.230Z,0
2023-01-11T00:10:52.688Z,0
2023-01-11T00:11:52.185Z,0
2023-01-11T00:12:52.424Z,0
2023-01-11T00:13:52.439Z,0
2023-01-11T00:14:52.451Z,0
2023-01-11T00:15:52.986Z,0
2023-01-11T00:16:52.840Z,0
2023-01-11T00:17:53.346Z,0
2023-01-11T00:18:53.041Z,0
2023-01-11T00:19:52.775Z,0
2023-01-11T00:20:53.336Z,0
2023-01-11T00:21:52.768Z,0
2023-01-11T00:22:52.967Z,0
2023-01-11T00:23:53.193Z,0
2023-01-11T00:24:53.029Z,0
2023-01-11T00:25:52.952Z,0
2023-01-11T00:26:52.402Z,0
2023-01-11T00:27:53.130Z,0
2023-01-11T00:28:53.122Z,0
2023-01-11T00:29:53.091Z,0
2023-01-11T00:30:52.974Z,0
2023-01-11T00:31:52.650Z,0
2023-01-11T00:32:52.776Z,0
2023-01-11T00:33:53.049Z,0
2023-01-11T00:34:52.275Z,0
2023-01-11T00:35:51.955Z,0
2023-01-11T00:36:53.032Z,0
2023-01-11T00:37:52.503Z,0
2023-01-11T00:38:52.700Z,0
2023-01-11T00:39:52.409Z,0
2023-01-11T00:40:52.630Z,0
2023-01-11T00:41:52.798Z,0
2023-01-11T00:42:52.900Z,0
2023-01-11T00:43:52.615Z,0
2023-01-11T00:44:52.584Z,0
2023-01-11T00:45:52.533Z,0
2023-01-11T00:46:52.534Z,0
2023-01-11T00:47:52.005Z,0
2023-01-11T00:48:52.756Z,0
2023-01-11T00:49:52.324Z,0
2023-01-11T00:50:52.467Z,0
2023-01-11T00:51:52.168Z,0
2023-01-11T00:52:52.516Z,0
2023-01-11T00:53:52.452Z,0
2023-01-11T00:54:52.129Z,0
2023-01-11T00:55:52.146Z,0
2023-01-11T00:56:52.087Z,0
2023-01-11T00:57:51.854Z,0
2023-01-11T00:58:52.597Z,0
2023-01-11T00:59:52.549Z,0
2023-01-11T01:00:52.291Z,0
2023-01-11T01:01:52.179Z,0
2023-01-11T01:02:52.530Z,0
2023-01-11T01:03:52.865Z,0
2023-01-11T01:04:53.418Z,0
2023-01-11T01:05:53.342Z,0
2023-01-11T01:06:53.395Z,0
2023-01-11T01:07:52.801Z,0
2023-01-11T01:08:53.081Z,0
2023-01-11T01:09:52.771Z,0
2023-01-11T01:10:52.734Z,0
2023-01-11T01:11:52.751Z,0
2023-01-11T01:12:52.660Z,0
2023-01-11T01:13:52.412Z,0
2023-01-11T01:14:52.994Z,0
2023-01-11T01:15:52.922Z,0
2023-01-11T01:16:53.132Z,0
2023-01-11T01:17:52.585Z,0
2023-01-11T01:18:52.845Z,0
2023-01-11T01:19:52.583Z,0
2023-01-11T01:20:52.804Z,0
2023-01-11T01:21:53.046Z,0
2023-01-11T01:22:53.022Z,0
2023-01-11T01:23:52.486Z,0
2023-01-11T01:24:52.857Z,0
2023-01-11T01:25:52.742Z,0
2023-01-11T01:26:52.682Z,0
2023-01-11T01:27:52.719Z,0
2023-01-11T01:28:52.661Z,0
2023-01-11T01:29:52.626Z,0
2023-01-11T01:30:52.458Z,0
2023-01-11T01:31:52.072Z,0
2023-01-11T01:32:52.603Z,0
2023-01-11T01:34:24.615Z,0
2023-01-11T01:34:52.609Z,0
2023-01-11T01:35:52.546Z,0
2023-01-11T01:36:52.281Z,0
2023-01-11T01:37:52.519Z,0
2023-01-11T01:38:52.519Z,0
2023-01-11T01:39:52.464Z,0
2023-01-11T01:40:52.683Z,0
2023-01-11T01:41:52.449Z,0
2023-01-11T01:42:51.870Z,0
2023-01-11T01:43:54.901Z,0
2023-01-11T01:44:52.267Z,0
2023-01-11T01:45:52.507Z,0
2023-01-11T01:46:52.577Z,0
2023-01-11T01:47:52.066Z,0
2023-01-11T01:48:52.276Z,0
2023-01-11T01:49:52.004Z,0
2023-01-11T01:50:52.540Z,0
2023-01-11T01:51:51.502Z,0
2023-01-11T01:52:52.211Z,0
2023-01-11T01:53:52.275Z,0
2023-01-11T01:54:52.240Z,0
2023-01-11T01:55:52.201Z,0
2023-01-11T01:56:52.592Z,0
2023-01-11T01:57:52.420Z,0
2023-01-11T01:58:52.099Z,0
2023-01-11T01:59:51.836Z,0
2023-01-11T02:00:51.845Z,0
2023-01-11T02:01:52.647Z,0
2023-01-11T02:02:52.687Z,0
2023-01-11T02:03:51.772Z,0
2023-01-11T02:04:52.127Z,0
2023-01-11T02:05:51.708Z,0
2023-01-11T02:06:52.305Z,0
2023-01-11T02:07:52.243Z,0
2023-01-11T02:08:51.917Z,0
2023-01-11T02:09:51.933Z,0
2023-01-11T02:10:52.165Z,0
2023-01-11T02:11:51.623Z,0
2023-01-11T02:12:52.207Z,0
2023-01-11T02:13:51.894Z,0
2023-01-11T02:14:51.824Z,0
2023-01-11T02:15:52.430Z,0
2023-01-11T02:16:51.538Z,0
2023-01-11T02:17:52.039Z,0
2023-01-11T02:18:51.526Z,0
2023-01-11T02:19:51.717Z,0
2023-01-11T02:20:51.959Z,0
2023-01-11T02:21:51.701Z,0
2023-01-11T02:22:51.693Z,0
2023-01-11T02:23:51.647Z,0
2023-01-11T02:24:50.916Z,0
2023-01-11T02:25:51.648Z,0
2023-01-11T02:26:51.610Z,0
2023-01-11T02:27:51.586Z,0
2023-01-11T02:28:51.907Z,0
2023-01-11T02:29:51.839Z,0
2023-01-11T02:30:51.291Z,0
2023-01-11T02:31:51.265Z,0
2023-01-11T02:32:51.262Z,0
2023-01-11T02:33:51.465Z,0
2023-01-11T02:34:51.453Z,0
2023-01-11T02:35:51.197Z,0
2023-01-11T02:36:51.690Z,0
2023-01-11T02:37:51.671Z,0
2023-01-11T02:38:51.106Z,0
2023-01-11T02:39:51.620Z,0
2023-01-11T02:40:51.124Z,0
2023-01-11T02:41:51.595Z,0
2023-01-11T02:42:51.337Z,0
2023-01-11T02:43:51.275Z,0
2023-01-11T02:44:51.358Z,0
2023-01-11T02:45:51.287Z,0
2023-01-11T02:46:51.564Z,0
2023-01-11T02:47:51.193Z,0
2023-01-11T02:48:51.205Z,0
2023-01-11T02:49:51.174Z,0
2023-01-11T02:50:50.895Z,0
2023-01-11T02:51:50.885Z,0
2023-01-11T02:52:51.133Z,0
2023-01-11T02:53:51.106Z,0
2023-01-11T02:54:50.840Z,0
2023-01-11T02:55:51.090Z,0
2023-01-11T02:56:51.323Z,0
2023-01-11T02:57:50.799Z,0
2023-01-11T02:58:50.782Z,0
2023-01-11T02:59:51.035Z,0
2023-01-11T03:00:51.305Z,0
2023-01-11T03:01:51.107Z,0
2023-01-11T03:02:50.926Z,0
2023-01-11T03:03:51.188Z,0
2023-01-11T03:04:50.746Z,0
2023-01-11T03:05:50.921Z,0
2023-01-11T03:06:51.327Z,0
2023-01-11T03:07:50.327Z,0
2023-01-11T03:08:50.605Z,0
2023-01-11T03:09:50.552Z,0
2023-01-11T03:10:50.806Z,0
2023-01-11T03:11:50.777Z,0
2023-01-11T03:12:51.001Z,0
2023-01-11T03:13:50.792Z,0
2023-01-11T03:14:50.505Z,0
2023-01-11T03:15:50.982Z,0
2023-01-11T03:16:51.952Z,0
2023-01-11T03:17:51.924Z,0
2023-01-11T03:18:51.333Z,0
2023-01-11T03:19:51.328Z,0
2023-01-11T03:20:51.840Z,0
2023-01-11T03:21:51.542Z,0
2023-01-11T03:22:50.781Z,0
2023-01-11T03:23:51.261Z,0
2023-01-11T03:24:51.806Z,0
2023-01-11T03:25:51.215Z,0
2023-01-11T03:26:51.454Z,0
2023-01-11T03:27:51.431Z,0
2023-01-11T03:28:51.421Z,0
2023-01-11T03:29:51.676Z,0
2023-01-11T03:30:51.131Z,0
2023-01-11T03:31:51.766Z,0
2023-01-11T03:32:51.403Z,0
2023-01-11T03:49:50.276Z,0
2023-01-11T03:50:49.521Z,0
2023-01-11T03:51:49.506Z,0
2023-01-11T03:52:49.773Z,0
2023-01-11T03:53:49.940Z,0
2023-01-11T03:54:49.187Z,0
2023-01-11T03:55:49.414Z,0
2023-01-11T03:56:49.641Z,0
2023-01-11T03:57:49.861Z,0
2023-01-11T03:58:49.861Z,0
2023-01-11T03:59:49.583Z,0
2023-01-11T04:00:49.237Z,0
2023-01-11T04:01:49.811Z,0
2023-01-11T04:02:49.540Z,0
2023-01-11T04:03:49.503Z,0
2023-01-11T04:04:49.585Z,0
2023-01-11T04:05:49.844Z,0
2023-01-11T04:06:49.790Z,0
2023-01-11T04:07:49.177Z,0
2023-01-11T04:08:49.673Z,0
2023-01-11T04:09:48.899Z,0
2023-01-11T04:10:49.638Z,0
2023-01-11T04:11:49.100Z,0
2023-01-11T04:12:49.330Z,0
2023-01-11T04:13:49.518Z,0
2023-01-11T04:14:49.470Z,0
2023-01-11T04:15:49.027Z,0
2023-01-11T04:16:49.142Z,0
2023-01-11T04:17:49.256Z,0
2023-01-11T04:18:49.476Z,0
2023-01-11T04:19:49.549Z,0
2023-01-11T04:20:48.940Z,0
2023-01-11T04:21:49.552Z,0
2023-01-11T04:22:48.897Z,0
2023-01-11T04:23:48.891Z,0
2023-01-11T04:24:48.960Z,0
2023-01-11T04:25:49.107Z,0
2023-01-11T04:26:49.077Z,0
2023-01-11T04:27:49.068Z,0
2023-01-11T04:28:49.309Z,0
2023-01-11T04:29:49.044Z,0
2023-01-11T04:30:49.004Z,0
2023-01-11T04:31:49.612Z,0
2023-01-11T04:32:48.997Z,0
2023-01-11T04:33:48.729Z,0
2023-01-11T04:34:48.983Z,0
2023-01-11T04:35:49.178Z,0
2023-01-11T04:36:49.163Z,0
2023-01-11T04:37:49.290Z,0
2023-01-11T04:38:48.881Z,0
2023-01-11T04:39:48.872Z,0
2023-01-11T04:40:48.329Z,0
2023-01-11T04:41:49.087Z,0
2023-01-11T04:42:48.880Z,0
2023-01-11T04:43:48.533Z,0
2023-01-11T04:44:49.116Z,0
2023-01-11T04:45:48.792Z,0
2023-01-11T04:46:48.468Z,0
2023-01-11T04:47:48.741Z,0
2023-01-11T04:48:48.916Z,0
2023-01-11T04:49:48.164Z,0
2023-01-11T04:50:48.700Z,0
2023-01-11T04:51:48.650Z,0
2023-01-11T04:52:48.634Z,0
2023-01-11T04:53:48.980Z,0
2023-01-11T04:54:48.955Z,0
2023-01-11T04:55:48.571Z,0
2023-01-11T04:56:48.809Z,0
2023-01-11T04:57:48.810Z,0
2023-01-11T04:58:48.519Z,0
2023-01-11T04:59:48.792Z,0
2023-01-11T05:00:49.351Z,0
2023-01-11T05:01:48.879Z,0
2023-01-11T05:02:48.579Z,0
2023-01-11T05:03:48.763Z,0
2023-01-11T05:04:48.762Z,0
2023-01-11T05:05:49.064Z,0
2023-01-11T05:06:48.524Z,0
2023-01-11T05:07:48.795Z,0
2023-01-11T05:08:48.971Z,0
2023-01-11T05:09:49.103Z,0
2023-01-11T05:10:48.758Z,0
2023-01-11T05:11:48.897Z,0
2023-01-11T05:12:48.873Z,0
2023-01-11T05:13:48.928Z,0
2023-01-11T05:14:48.604Z,0
2023-01-11T05:15:48.313Z,0
2023-01-11T05:16:48.964Z,0
2023-01-11T05:17:48.304Z,0
2023-01-11T05:18:48.509Z,0
2023-01-11T05:19:48.794Z,0
2023-01-11T05:20:48.486Z,0
2023-01-11T05:21:47.959Z,0
2023-01-11T05:22:48.458Z,0
2023-01-11T05:23:48.432Z,0
2023-01-11T05:24:48.690Z,0
2023-01-11T05:25:48.784Z,0
2023-01-11T05:26:48.142Z,0
2023-01-11T05:27:48.423Z,0
2023-01-11T05:28:48.593Z,0
2023-01-11T05:29:48.352Z,0
2023-01-11T05:30:48.051Z,0
2023-01-11T05:31:48.389Z,0
2023-01-11T05:32:48.290Z,0
2023-01-11T05:33:47.775Z,0
2023-01-11T05:34:48.266Z,0
2023-01-11T05:35:48.235Z,0
2023-01-11T05:36:47.970Z,0
2023-01-11T05:37:47.925Z,0
2023-01-11T05:38:48.187Z,0
2023-01-11T05:39:47.966Z,0
2023-01-11T05:40:48.147Z,0
2023-01-11T05:41:48.528Z,0
2023-01-11T05:42:48.117Z,0
2023-01-11T05:43:48.111Z,0
2023-01-11T05:44:47.900Z,0
2023-01-11T05:45:48.224Z,0
2023-01-11T05:46:48.042Z,0
2023-01-11T05:47:48.288Z,0
2023-01-11T05:48:47.749Z,0
2023-01-11T05:49:48.286Z,0
2023-01-11T05:50:47.978Z,0
2023-01-11T05:51:47.953Z,0
2023-01-11T05:52:47.944Z,0
2023-01-11T05:53:47.931Z,0
2023-01-11T05:54:48.168Z,0
2023-01-11T05:55:47.615Z,0
2023-01-11T05:56:47.885Z,0
2023-01-11T05:57:48.202Z,0
2023-01-11T05:58:47.567Z,0
2023-01-11T05:59:48.084Z,0
2023-01-11T06:00:47.778Z,0
2023-01-11T06:01:48.167Z,0
2023-01-11T06:02:48.579Z,0
2023-01-11T06:03:47.738Z,0
2023-01-11T06:04:47.456Z,0
2023-01-11T06:05:49.799Z,0
2023-01-11T06:06:47.996Z,0
2023-01-11T06:07:47.667Z,0
2023-01-11T06:08:48.058Z,0
2023-01-11T06:09:48.018Z,0
2023-01-11T06:10:47.734Z,0
2023-01-11T06:11:47.980Z,0
2023-01-11T06:12:47.448Z,0
2023-01-11T06:13:48.319Z,0
2023-01-11T06:14:47.431Z,0
2023-01-11T06:15:47.666Z,0
2023-01-11T06:16:48.218Z,0
2023-01-11T06:17:47.363Z,0
2023-01-11T06:18:47.639Z,0
2023-01-11T06:19:47.829Z,0
2023-01-11T06:20:47.817Z,0
2023-01-11T06:21:48.053Z,0
2023-01-11T06:22:48.040Z,0
2023-01-11T06:23:48.089Z,0
2023-01-11T06:24:48.146Z,0
2023-01-11T06:25:50.204Z,0
2023-01-11T06:26:48.378Z,0
2023-01-11T06:27:48.106Z,0
2023-01-11T06:28:48.153Z,0
2023-01-11T06:29:48.709Z,0
2023-01-11T06:30:48.606Z,0
2023-01-11T06:31:48.290Z,0
2023-01-11T06:32:48.536Z,0
2023-01-11T06:33:48.306Z,0
2023-01-11T06:34:48.235Z,0
2023-01-11T06:35:47.946Z,0
2023-01-11T06:36:48.462Z,0
2023-01-11T06:37:48.175Z,0
2023-01-11T06:38:48.192Z,0
2023-01-11T06:39:47.900Z,0
2023-01-11T06:40:48.159Z,0
2023-01-11T06:41:48.117Z,0
2023-01-11T06:42:48.353Z,0
2023-01-11T06:43:47.826Z,0
2023-01-11T06:44:48.044Z,0
2023-01-11T06:45:48.602Z,0
2023-01-11T06:46:48.170Z,0
2023-01-11T06:47:47.745Z,0
2023-01-11T06:48:47.975Z,0
2023-01-11T06:49:47.756Z,0
2023-01-11T06:50:48.426Z,0
2023-01-11T06:51:47.951Z,0
2023-01-11T06:52:47.910Z,0
2023-01-11T06:53:48.160Z,0
2023-01-11T06:54:47.956Z,0
2023-01-11T06:55:47.859Z,0
2023-01-11T06:56:47.880Z,0
2023-01-11T06:57:47.872Z,0
2023-01-11T06:58:51.600Z,0
2023-01-11T06:59:48.625Z,0
2023-01-11T07:00:48.270Z,0
2023-01-11T07:01:48.825Z,0
2023-01-11T07:02:47.749Z,0
2023-01-11T07:03:48.037Z,0
2023-01-11T07:04:47.767Z,0
2023-01-11T07:05:47.691Z,0
2023-01-11T07:06:47.910Z,0
2023-01-11T07:07:47.657Z,0
2023-01-11T07:08:47.910Z,0
2023-01-11T07:09:47.617Z,0
2023-01-11T07:10:47.849Z,0
2023-01-11T07:11:47.835Z,0
2023-01-11T07:12:47.837Z,0
2023-01-11T07:13:47.555Z,0
2023-01-11T07:14:47.534Z,5
2023-01-11T07:15:48.081Z,5
2023-01-11T07:16:47.521Z,5
2023-01-11T07:17:47.906Z,5
2023-01-11T07:18:49.534Z,5
2023-01-11T07:19:47.201Z,5
2023-01-11T07:20:47.691Z,5
2023-01-11T07:21:47.423Z,5
2023-01-11T07:22:47.160Z,5
2023-01-11T07:23:47.368Z,5
2023-01-11T07:24:50.734Z,5
2023-01-11T07:25:47.636Z,10
2023-01-11T07:26:48.506Z,10
2023-01-11T07:27:48.326Z,10
2023-01-11T07:28:48.036Z,10
2023-01-11T07:29:48.540Z,10
2023-01-11T07:31:07.232Z,10
2023-01-11T07:31:48.944Z,10
2023-01-11T07:32:48.236Z,10
2023-01-11T07:33:48.597Z,10
2023-01-11T07:34:48.803Z,15
2023-01-11T07:35:48.157Z,15
2023-01-11T07:36:48.170Z,15
2023-01-11T07:37:48.419Z,15
2023-01-11T07:38:48.403Z,15
2023-01-11T07:39:53.394Z,15
2023-01-11T07:40:48.402Z,15
2023-01-11T07:41:48.892Z,15
2023-01-11T07:42:48.080Z,20
2023-01-11T07:43:48.049Z,20
2023-01-11T07:44:47.758Z,20
2023-01-11T07:45:55.916Z,20
2023-01-11T07:46:48.329Z,20
2023-01-11T07:47:47.985Z,25
2023-01-11T07:48:48.217Z,25
2023-01-11T07:49:48.323Z,25
2023-01-11T07:50:51.501Z,25
2023-01-11T07:51:47.686Z,25
2023-01-11T07:52:48.148Z,30
2023-01-11T07:53:48.126Z,30
2023-01-11T07:54:47.618Z,30
2023-01-11T07:55:47.843Z,30
2023-01-11T07:56:47.862Z,30
2023-01-11T07:57:47.815Z,30
2023-01-11T07:58:47.798Z,30
2023-01-11T07:59:47.780Z,35
2023-01-11T08:00:47.790Z,30
2023-01-11T08:01:48.787Z,30
2023-01-11T08:02:48.422Z,35
2023-01-11T08:03:48.126Z,40
2023-01-11T08:04:47.950Z,40
2023-01-11T08:05:48.077Z,40
2023-01-11T08:06:47.923Z,40
2023-01-11T08:07:47.372Z,40
2023-01-11T08:08:47.902Z,45
2023-01-11T08:09:47.366Z,45
2023-01-11T08:10:50.735Z,45
2023-01-11T08:11:47.814Z,45
2023-01-11T08:12:49.469Z,45
2023-01-11T08:13:47.821Z,50
2023-01-11T08:14:47.357Z,50
2023-01-11T08:15:48.160Z,50
2023-01-11T08:16:47.763Z,50
2023-01-11T08:17:47.503Z,50
2023-01-11T08:18:47.458Z,50
2023-01-11T08:19:47.454Z,55
2023-01-11T08:20:47.455Z,55
2023-01-11T08:21:47.811Z,55
2023-01-11T08:22:47.399Z,55
2023-01-11T08:23:47.366Z,55
2023-01-11T08:24:47.645Z,55
2023-01-11T08:25:47.401Z,55
2023-01-11T08:26:47.591Z,55
2023-01-11T08:27:49.978Z,55
2023-01-11T08:28:47.031Z,55
2023-01-11T08:29:47.369Z,55
2023-01-11T08:30:47.532Z,55
2023-01-11T08:31:47.008Z,60
2023-01-11T08:32:47.510Z,60
2023-01-11T08:33:47.217Z,60
2023-01-11T08:34:46.933Z,60
2023-01-11T08:35:47.479Z,60
2023-01-11T08:36:47.177Z,60
2023-01-11T08:37:47.574Z,60
2023-01-11T08:38:47.142Z,60
2023-01-11T08:39:47.095Z,60
2023-01-11T08:40:47.107Z,65
2023-01-11T08:41:47.358Z,70
2023-01-11T08:42:46.805Z,65
2023-01-11T08:43:47.310Z,65
2023-01-11T08:44:47.283Z,65
2023-01-11T08:45:47.015Z,70
2023-01-11T08:46:46.974Z,70
2023-01-11T08:47:46.714Z,70
2023-01-11T08:48:47.366Z,70
2023-01-11T08:49:47.216Z,75
2023-01-11T08:50:47.004Z,70
2023-01-11T08:51:46.662Z,75
2023-01-11T08:52:46.638Z,75
2023-01-11T08:53:47.678Z,75
2023-01-11T08:54:47.236Z,75
2023-01-11T08:55:47.201Z,80
2023-01-11T08:56:46.938Z,80
2023-01-11T08:57:47.677Z,80
2023-01-11T08:58:46.905Z,75
2023-01-11T08:59:46.884Z,80
2023-01-11T09:00:46.876Z,85
2023-01-11T09:01:47.781Z,85
2023-01-11T09:02:47.865Z,90
2023-01-11T09:03:47.102Z,90
2023-01-11T09:04:46.860Z,90
2023-01-11T09:05:47.053Z,90
2023-01-11T09:06:46.809Z,95
2023-01-11T09:07:46.821Z,95
2023-01-11T09:08:46.973Z,100
2023-01-11T09:09:47.560Z,100
2023-01-11T09:10:46.982Z,100
2023-01-11T09:11:47.228Z,100
2023-01-11T09:12:46.708Z,100
2023-01-11T09:13:47.184Z,100
2023-01-11T09:14:46.705Z,105
2023-01-11T09:15:46.896Z,110
2023-01-11T09:16:47.131Z,105
2023-01-11T09:17:46.891Z,110
2023-01-11T09:18:46.616Z,110
2023-01-11T09:19:47.094Z,105
2023-01-11T09:20:47.072Z,105
2023-01-11T09:21:46.564Z,115
2023-01-11T09:22:47.064Z,110
2023-01-11T09:23:46.762Z,110
2023-01-11T09:24:46.783Z,105
2023-01-11T09:25:47.188Z,105
2023-01-11T09:26:47.331Z,105
2023-01-11T09:27:46.698Z,105
2023-01-11T09:28:46.667Z,110
2023-01-11T09:29:47.277Z,105
2023-01-11T09:30:46.697Z,105
2023-01-11T09:31:46.373Z,105
2023-01-11T09:32:46.622Z,110
2023-01-11T09:33:46.865Z,110
2023-01-11T09:34:48.789Z,100
2023-01-11T09:35:46.370Z,105
2023-01-11T09:36:46.296Z,105
2023-01-11T09:37:46.302Z,115
2023-01-11T09:38:46.798Z,115
2023-01-11T09:39:46.546Z,115
2023-01-11T09:40:46.261Z,115
2023-01-11T09:41:46.853Z,120
2023-01-11T09:42:46.836Z,120
2023-01-11T09:43:48.410Z,115
2023-01-11T09:44:46.176Z,115
2023-01-11T09:45:46.421Z,115
2023-01-11T09:46:46.732Z,120
2023-01-11T09:47:46.452Z,115
2023-01-11T09:48:46.664Z,115
2023-01-11T09:49:46.390Z,115
2023-01-11T09:50:46.115Z,115
2023-01-11T09:51:46.366Z,120
2023-01-11T09:52:46.322Z,120
2023-01-11T09:53:46.071Z,120
2023-01-11T09:54:46.560Z,120
2023-01-11T09:55:46.542Z,120
2023-01-11T09:56:46.271Z,120
2023-01-11T09:57:47.166Z,120
2023-01-11T09:58:46.786Z,115
2023-01-11T09:59:46.438Z,120
2023-01-11T10:00:46.522Z,120
2023-01-11T10:01:46.655Z,120
2023-01-11T10:02:46.420Z,115
2023-01-11T10:03:46.369Z,120
2023-01-11T10:04:46.637Z,120
2023-01-11T10:05:46.352Z,115
2023-01-11T10:06:46.084Z,120
2023-01-11T10:07:46.085Z,120
2023-01-11T10:19:50.105Z,155
2023-01-11T10:20:41.200Z,160
2023-01-11T10:21:41.010Z,160
2023-01-11T10:22:40.532Z,155
2023-01-11T10:23:40.484Z,160
2023-01-11T10:24:41.874Z,155
2023-01-11T10:25:40.731Z,155
2023-01-11T10:26:40.885Z,150
2023-01-11T10:27:40.863Z,150
2023-01-11T10:28:40.446Z,145
2023-01-11T10:29:40.996Z,145
2023-01-11T10:30:43.413Z,140
2023-01-11T10:31:40.788Z,145
2023-01-11T10:32:40.580Z,145
2023-01-11T10:33:40.871Z,150
2023-01-11T10:34:40.614Z,145
2023-01-11T10:35:40.367Z,150
2023-01-11T10:36:40.809Z,145
2023-01-11T10:37:40.775Z,145
2023-01-11T10:38:40.515Z,150
2023-01-11T10:39:40.409Z,155
2023-01-11T10:40:40.572Z,155
2023-01-11T10:41:42.285Z,160
2023-01-11T10:42:40.560Z,160
2023-01-11T10:43:40.230Z,160
2023-01-11T10:44:40.848Z,160
2023-01-11T10:45:40.916Z,160
2023-01-11T10:46:40.187Z,160
2023-01-11T10:47:40.679Z,165
2023-01-11T10:48:40.180Z,160
2023-01-11T10:49:43.780Z,145
2023-01-11T10:50:40.383Z,145
2023-01-11T10:51:40.393Z,150
2023-01-11T10:52:40.713Z,140
2023-01-11T10:53:40.597Z,150
2023-01-11T10:54:40.342Z,140
2023-01-11T10:55:40.131Z,140
2023-01-11T10:57:07.195Z,135
2023-01-11T10:58:03.550Z,130
2023-01-11T10:58:40.543Z,130
2023-01-11T10:59:40.433Z,135
2023-01-11T11:00:40.622Z,145
2023-01-11T11:01:40.505Z,140
2023-01-11T11:02:40.949Z,145
2023-01-11T11:03:40.472Z,140
2023-01-11T11:04:39.782Z,140
2023-01-11T11:05:40.948Z,155
2023-01-11T11:06:40.684Z,155
2023-01-11T11:07:40.408Z,150
2023-01-11T11:08:41.525Z,155
2023-01-11T11:09:40.101Z,145
2023-01-11T11:10:39.867Z,140
2023-01-11T11:11:40.643Z,150
2023-01-11T11:12:40.071Z,155
2023-01-11T11:13:41.854Z,160
2023-01-11T11:14:40.390Z,160
2023-01-11T11:15:40.364Z,165
2023-01-11T11:16:40.661Z,165
2023-01-11T11:17:40.395Z,165
2023-01-11T11:18:39.721Z,165
2023-01-11T11:19:41.812Z,160
2023-01-11T11:20:40.007Z,155
2023-01-11T11:21:39.768Z,155
2023-01-11T11:22:39.904Z,150
2023-01-11T11:23:39.927Z,145
2023-01-11T11:24:39.881Z,145
2023-01-11T11:25:41.424Z,145
2023-01-11T11:26:39.468Z,140
2023-01-11T11:27:40.202Z,140
2023-01-11T11:28:40.136Z,135
2023-01-11T11:29:39.812Z,120
2023-01-11T11:30:40.119Z,110
2023-01-11T11:31:42.081Z,105
2023-01-11T11:32:42.849Z,100
2023-01-11T11:33:40.071Z,100
2023-01-11T11:34:39.235Z,95
2023-01-11T11:35:39.814Z,90
2023-01-11T11:36:39.461Z,90
2023-01-11T11:37:39.762Z,90
2023-01-11T11:38:39.682Z,90
2023-01-11T11:39:39.753Z,90
2023-01-11T11:40:39.934Z,85
2023-01-11T11:41:39.909Z,85
2023-01-11T11:42:39.398Z,85
2023-01-11T11:43:39.363Z,90
2023-01-11T11:44:39.985Z,90
2023-01-11T11:45:40.124Z,90
2023-01-11T11:46:39.506Z,90
2023-01-11T11:47:39.570Z,90
2023-01-11T11:48:39.580Z,85
2023-01-11T11:49:40.397Z,80
2023-01-11T11:50:53.972Z,75
2023-01-11T11:51:39.482Z,75
2023-01-11T11:52:39.039Z,80
2023-01-11T11:53:39.542Z,85
2023-01-11T11:54:39.480Z,85
2023-01-11T11:55:39.739Z,85
2023-01-11T11:56:39.438Z,75
2023-01-11T11:57:39.402Z,75
2023-01-11T11:58:41.240Z,75
2023-01-11T11:59:39.654Z,75
2023-01-11T12:00:39.349Z,75
2023-01-11T12:01:39.086Z,80
2023-01-11T12:02:39.549Z,80
2023-01-11T12:03:39.562Z,85
2023-01-11T12:04:39.297Z,85
2023-01-11T12:05:39.121Z,85
2023-01-11T12:06:39.281Z,80
2023-01-11T12:07:58.423Z,75
2023-01-11T12:08:38.971Z,75
2023-01-11T12:09:39.651Z,70
2023-01-11T12:10:39.259Z,65
2023-01-11T12:11:39.288Z,65
2023-01-11T12:12:39.513Z,65
2023-01-11T12:13:39.232Z,65
2023-01-11T12:14:38.905Z,60
2023-01-11T12:15:38.917Z,55
2023-01-11T12:16:39.536Z,55
2023-01-11T12:17:39.389Z,50
2023-01-11T12:18:39.347Z,45
2023-01-11T12:19:38.553Z,45
2023-01-11T12:20:39.333Z,40
2023-01-11T12:21:39.353Z,40
2023-01-11T12:22:39.037Z,40
2023-01-11T12:23:39.004Z,40
2023-01-11T12:24:39.000Z,40
2023-01-11T12:25:38.528Z,40
2023-01-11T12:26:38.885Z,40
2023-01-11T12:27:38.996Z,40
2023-01-11T12:28:38.932Z,40
2023-01-11T12:29:38.670Z,40
2023-01-11T12:30:39.265Z,45
2023-01-11T12:31:38.666Z,40
2023-01-11T12:32:38.358Z,40
2023-01-11T12:33:38.352Z,40
2023-01-11T12:34:39.109Z,40
2023-01-11T12:35:38.574Z,35
2023-01-11T12:36:38.809Z,35
2023-01-11T12:37:38.843Z,35
2023-01-11T12:38:39.047Z,30
2023-01-11T12:39:38.817Z,30
2023-01-11T12:40:39.037Z,30
2023-01-11T12:41:38.784Z,35
2023-01-11T12:42:39.014Z,35
2023-01-11T12:43:38.809Z,30
2023-01-11T12:44:38.461Z,30
2023-01-11T12:45:38.783Z,30
2023-01-11T12:46:38.721Z,30
2023-01-11T12:47:40.683Z,30
2023-01-11T12:48:38.409Z,25
2023-01-11T12:49:38.459Z,25
2023-01-11T12:51:38.950Z,30
2023-01-11T12:52:38.922Z,30
2023-01-11T12:53:38.628Z,30
2023-01-11T12:54:38.604Z,30
2023-01-11T12:55:38.799Z,30
2023-01-11T12:56:38.538Z,30
2023-01-11T12:57:38.586Z,30
2023-01-11T12:58:38.578Z,30
2023-01-11T12:59:38.756Z,30
2023-01-11T13:00:38.714Z,30
2023-01-11T13:01:38.574Z,30
2023-01-11T13:02:38.861Z,30
2023-01-11T13:03:38.443Z,30
2023-01-11T13:04:38.656Z,30
2023-01-11T13:05:38.188Z,30
2023-01-11T13:06:38.412Z,30
2023-01-11T13:07:38.366Z,30
2023-01-11T13:08:38.585Z,30
2023-01-11T13:09:38.410Z,30
2023-01-11T13:10:38.053Z,30
2023-01-11T13:11:38.081Z,30
2023-01-11T13:12:38.527Z,30
2023-01-11T13:13:38.055Z,30
2023-01-11T13:14:38.267Z,30
2023-01-11T13:15:41.617Z,30
2023-01-11T13:16:38.674Z,35
2023-01-11T13:17:38.182Z,35
2023-01-11T13:18:38.498Z,35
2023-01-11T13:19:38.181Z,35
2023-01-11T13:21:06.963Z,35
2023-01-11T13:21:37.892Z,35
2023-01-11T13:22:38.137Z,35
2023-01-11T13:23:38.123Z,40
2023-01-11T13:24:38.161Z,40
2023-01-11T13:25:38.112Z,35
2023-01-11T13:26:38.561Z,35
2023-01-11T13:27:38.033Z,35
2023-01-11T13:28:37.770Z,30
2023-01-11T13:29:37.866Z,30
2023-01-11T13:30:38.256Z,30
2023-01-11T13:31:37.852Z,30
2023-01-11T13:32:39.841Z,25
2023-01-11T13:33:37.931Z,25
2023-01-11T13:34:38.186Z,25
2023-01-11T13:35:37.661Z,25
2023-01-11T13:36:38.148Z,30
2023-01-11T13:37:37.929Z,30
2023-01-11T13:38:39.413Z,30
2023-01-11T13:39:37.716Z,30
2023-01-11T13:40:37.615Z,25
2023-01-11T13:41:38.142Z,30
2023-01-11T13:42:37.847Z,30
2023-01-11T13:43:38.039Z,30
2023-01-11T13:44:39.858Z,30
2023-01-11T13:45:37.947Z,35
2023-01-11T13:46:38.201Z,35
2023-01-11T13:47:38.075Z,40
2023-01-11T13:48:37.991Z,40
2023-01-11T13:49:37.439Z,40
2023-01-11T13:50:37.838Z,40
2023-01-11T13:51:37.713Z,40
2023-01-11T13:52:37.690Z,40
2023-01-11T13:53:37.371Z,40
2023-01-11T13:54:37.376Z,40
2023-01-11T13:55:37.643Z,40
2023-01-11T13:56:37.598Z,40
2023-01-11T13:57:37.655Z,40
2023-01-11T13:58:39.424Z,40
2023-01-11T13:59:37.120Z,35
2023-01-11T14:00:37.839Z,30
2023-01-11T14:01:37.653Z,30
2023-01-11T14:02:40.185Z,30
2023-01-11T14:03:38.189Z,30
2023-01-11T14:04:36.986Z,30
2023-01-11T14:05:37.492Z,30
2023-01-11T14:06:37.216Z,30
2023-01-11T14:07:37.558Z,25
2023-01-11T14:08:38.925Z,25
2023-01-11T14:09:37.724Z,25
2023-01-11T14:10:37.672Z,25
2023-01-11T14:11:37.364Z,25
2023-01-11T14:12:37.379Z,25
2023-01-11T14:13:37.677Z,25
2023-01-11T14:14:39.856Z,25
2023-01-11T14:15:37.734Z,25
2023-01-11T14:16:37.040Z,20
2023-01-11T14:17:37.607Z,20
2023-01-11T14:18:37.003Z,20
2023-01-11T14:19:37.533Z,15
2023-01-11T14:20:37.604Z,20
2023-01-11T14:21:36.951Z,15
2023-01-11T14:22:37.470Z,15
2023-01-11T14:23:36.937Z,15
2023-01-11T14:24:36.917Z,15
2023-01-11T14:25:37.158Z,15
2023-01-11T14:26:36.715Z,15
2023-01-11T14:27:37.127Z,15
2023-01-11T14:28:37.428Z,15
2023-01-11T14:29:37.509Z,15
2023-01-11T14:30:37.222Z,15
2023-01-11T14:31:37.488Z,15
2023-01-11T14:32:36.556Z,15
2023-01-11T14:33:37.345Z,15
2023-01-11T14:34:37.255Z,15
2023-01-11T14:35:37.310Z,15
2023-01-11T14:36:37.297Z,15
2023-01-11T14:37:36.744Z,15
2023-01-11T14:38:37.227Z,15
2023-01-11T14:39:36.434Z,15
2023-01-11T14:40:37.170Z,15
2023-01-11T14:41:36.927Z,15
2023-01-11T14:42:42.820Z,10
2023-01-11T14:43:36.653Z,10
2023-01-11T14:44:36.347Z,10
2023-01-11T14:45:36.688Z,10
2023-01-11T14:46:37.375Z,10
2023-01-11T14:47:36.581Z,10
2023-01-11T14:48:36.821Z,10
2023-01-11T14:49:36.830Z,10
2023-01-11T14:50:36.520Z,10
2023-01-11T14:51:42.963Z,10
2023-01-11T14:52:49.199Z,5
2023-01-11T14:53:36.472Z,5
2023-01-11T14:54:36.263Z,5